Aérodrome :
LOGIN :

S'inscrire | Disclaimer

   EN    FR    IT 

 










Légende :    VFR   VFR Marginal   IFR   IFR Intensif   IFR Très Intensif
Visi : 
Plafond : 
>= 8 km
>= 3000ft
5 à 8 km
1000 à 3000 ft
1500m à 5 km
500 à 1000 ft
800 à 1500m
200 à 500 ft
< 800m
< 200 ft
Symboles :   Orages  Brouillard  Fortes neiges  Fortes précipitations  Vent > 20 kt
SIGMETs :   Divers  Orages  Givrage  Turbulence  Onde Orograph.  Cendres Volcan.







- Altitude de l'aérodrome : 358 ft
- Voir les cartes d'approche


EGTC - Cranfield

DERNIER METAR :
  • 280750Z 34006KT 300V020 9999 FEW022 SCT037 08/06 Q1017

METARs EXPIRÉS :
  • 280720Z 35006KT 320V020 9999 FEW018 SCT036 08/06 Q1016
  • 280650Z 33005KT 300V010 9999 SCT044 07/06 Q1016
  • 280620Z VRB03KT 9999 SCT044 07/06 Q1016

TAF TAF EGTC
Valide du 28 à 07h jusqu'au 28 à 15h UTC


280705Z 2807/2815 33009KT 9999 SCT045
PROB30
TEMPO 2807/2809 7000 -RA
Pas de NOTAMs connus pour ce terrain.



MET'MAP, la Météo Aéronautique d'un coup d'oeil ! - Copyright ORBIFLY Décembre 2007 - Disclaimer

ORBIFLY MET'MAP TEAM :

Programmation & Développement : Alexandra Zaïnal
Conception & Développement : Baudouin d'Aumeries
Co-Programmation & Développement : Marc-Olivier Méhu
Soutien technique & logistique : Manuel Goepfert

Contact : metmap@orbifly.com




SOURCES & CREDITS :

   NOAA